createdAt,value
2023-05-18T00:02:49.639Z,88.90
2023-05-18T00:05:51.803Z,88.43
2023-05-18T00:08:54.073Z,88.53
2023-05-18T00:11:56.591Z,89.14
2023-05-18T00:14:58.924Z,88.88
2023-05-18T00:18:01.132Z,88.21
2023-05-18T00:21:03.269Z,87.74
2023-05-18T00:24:05.627Z,87.41
2023-05-18T00:27:07.792Z,88.30
2023-05-18T00:30:10.366Z,88.62
2023-05-18T00:33:12.430Z,88.03
2023-05-18T00:36:14.952Z,89.14
2023-05-18T00:39:17.009Z,89.18
2023-05-18T00:42:19.057Z,89.03
2023-05-18T00:45:21.756Z,88.66
2023-05-18T00:48:23.912Z,89.46
2023-05-18T00:51:26.526Z,88.93
2023-05-18T00:54:28.716Z,88.68
2023-05-18T00:57:30.937Z,87.75
2023-05-18T01:00:34.110Z,86.72
2023-05-18T01:03:39.385Z,87.09
2023-05-18T01:06:43.137Z,87.40
2023-05-18T01:09:45.553Z,87.97
2023-05-18T01:13:03.316Z,87.28
2023-05-18T01:16:10.259Z,87.44
2023-05-18T01:19:24.506Z,87.60
2023-05-18T01:22:45.359Z,88.41
2023-05-18T01:25:53.713Z,88.16
2023-05-18T01:28:56.695Z,88.27
2023-05-18T01:31:58.972Z,89.10
2023-05-18T01:35:02.240Z,88.85
2023-05-18T01:38:05.855Z,88.64
2023-05-18T01:41:16.752Z,89.22
2023-05-18T01:44:18.856Z,88.21
2023-05-18T01:47:21.044Z,88.00
2023-05-18T01:50:38.058Z,87.79
2023-05-18T01:53:46.742Z,87.93
2023-05-18T01:56:52.261Z,88.03
2023-05-18T01:59:55.537Z,87.89
2023-05-18T02:02:58.216Z,87.92
2023-05-18T02:06:00.474Z,88.17
2023-05-18T02:09:05.834Z,87.78
2023-05-18T02:12:08.662Z,90.19
2023-05-18T02:15:11.143Z,88.84
2023-05-18T02:18:13.249Z,90.08
2023-05-18T02:21:15.473Z,89.03
2023-05-18T02:24:20.715Z,89.64
2023-05-18T02:27:22.713Z,89.57
2023-05-18T02:30:24.678Z,89.85
2023-05-18T02:33:26.910Z,88.61
2023-05-18T02:36:37.291Z,89.98
2023-05-18T02:39:40.493Z,89.34
2023-05-18T02:42:43.256Z,88.63
2023-05-18T02:45:46.266Z,88.32
2023-05-18T02:48:48.535Z,89.00
2023-05-18T02:51:50.946Z,88.96
2023-05-18T02:54:54.922Z,88.46
2023-05-18T02:58:08.419Z,88.16
2023-05-18T03:01:37.046Z,89.73
2023-05-18T03:04:39.224Z,90.17
2023-05-18T03:07:42.404Z,89.68
2023-05-18T03:10:45.500Z,89.47
2023-05-18T03:13:48.742Z,89.56
2023-05-18T03:16:54.450Z,89.54
2023-05-18T03:19:58.820Z,89.94
2023-05-18T03:23:01.188Z,90.03
2023-05-18T03:26:04.050Z,88.73
2023-05-18T03:29:06.547Z,89.05
2023-05-18T03:32:08.632Z,88.47
2023-05-18T03:35:11.784Z,88.04
2023-05-18T03:38:15.046Z,89.01
2023-05-18T03:41:22.350Z,87.47
2023-05-18T03:44:25.612Z,87.64
2023-05-18T03:47:27.873Z,88.39
2023-05-18T03:50:30.290Z,87.24
2023-05-18T03:53:33.971Z,88.67
2023-05-18T03:56:36.048Z,87.67
2023-05-18T03:59:38.498Z,88.02
2023-05-18T04:02:40.834Z,89.79
2023-05-18T04:05:46.650Z,88.19
2023-05-18T04:08:52.483Z,88.06
2023-05-18T04:11:54.701Z,100.00
2023-05-18T04:15:01.356Z,100.00
2023-05-18T04:18:04.014Z,93.64
2023-05-18T04:21:07.168Z,90.93
2023-05-18T04:24:10.821Z,89.72
2023-05-18T04:27:13.955Z,90.70
2023-05-18T04:33:38.786Z,87.08
2023-05-18T04:36:47.235Z,86.21
2023-05-18T04:39:53.480Z,84.97
2023-05-18T04:42:55.814Z,83.66
2023-05-18T04:46:02.935Z,82.62
2023-05-18T04:49:07.025Z,82.38
2023-05-18T04:52:11.230Z,81.19
2023-05-18T04:55:13.979Z,80.98
2023-05-18T04:58:17.583Z,78.47
2023-05-18T05:01:20.272Z,78.06
2023-05-18T05:04:24.033Z,79.53
2023-05-18T05:07:27.640Z,78.67
2023-05-18T05:10:29.674Z,78.83
2023-05-18T05:13:31.802Z,79.14
2023-05-18T05:16:35.190Z,79.21
2023-05-18T05:19:37.412Z,79.70
2023-05-18T05:22:40.662Z,79.51
2023-05-18T05:25:45.359Z,79.80
2023-05-18T05:28:48.028Z,79.55
2023-05-18T05:31:50.605Z,79.36
2023-05-18T05:34:53.136Z,79.90
2023-05-18T05:37:56.525Z,80.38
2023-05-18T05:41:00.512Z,79.75
2023-05-18T05:44:02.688Z,79.43
2023-05-18T05:47:05.547Z,79.64
2023-05-18T05:50:08.391Z,79.33
2023-05-18T05:53:11.055Z,79.26
2023-05-18T05:56:14.808Z,79.54
2023-05-18T05:59:17.005Z,79.46
2023-05-18T06:02:20.938Z,79.18
2023-05-18T06:05:23.525Z,79.46
2023-05-18T06:08:26.948Z,79.38
2023-05-18T06:11:30.870Z,79.99
2023-05-18T06:14:33.097Z,79.65
2023-05-18T06:17:38.830Z,78.97
2023-05-18T06:20:41.156Z,79.18
2023-05-18T06:23:44.796Z,80.32
2023-05-18T06:27:08.398Z,80.59
2023-05-18T06:30:19.428Z,80.34
2023-05-18T06:33:40.261Z,80.26
2023-05-18T06:36:51.570Z,79.91
2023-05-18T06:39:54.020Z,79.87
2023-05-18T06:42:59.029Z,79.49
2023-05-18T06:46:11.163Z,79.81
2023-05-18T06:49:15.725Z,80.01
2023-05-18T06:52:17.982Z,78.08
2023-05-18T06:55:20.924Z,59.60
2023-05-18T06:58:26.191Z,68.15
2023-05-18T07:01:29.269Z,69.61
2023-05-18T07:04:34.510Z,72.44
2023-05-18T07:07:57.117Z,71.37
2023-05-18T07:11:02.699Z,68.26
2023-05-18T07:14:04.886Z,68.11
2023-05-18T07:17:11.715Z,66.97
2023-05-18T07:20:13.813Z,64.96
2023-05-18T07:23:18.953Z,64.24
2023-05-18T07:26:22.875Z,64.66
2023-05-18T07:29:25.112Z,65.19
2023-05-18T07:32:27.570Z,65.25
2023-05-18T07:35:29.977Z,66.02
2023-05-18T07:38:32.604Z,65.49
2023-05-18T07:41:35.315Z,66.11
2023-05-18T07:44:38.876Z,65.89
2023-05-18T07:47:41.006Z,66.03
2023-05-18T07:50:43.097Z,64.17
2023-05-18T07:53:46.165Z,64.59
2023-05-18T07:56:48.714Z,63.59
2023-05-18T07:59:51.358Z,63.91
2023-05-18T08:02:54.146Z,63.37
2023-05-18T08:06:19.306Z,63.02
2023-05-18T08:09:24.773Z,63.07
2023-05-18T08:12:30.078Z,62.22
2023-05-18T08:15:32.684Z,62.85
2023-05-18T08:18:35.426Z,59.97
2023-05-18T08:21:37.688Z,59.32
2023-05-18T08:27:56.140Z,59.13
2023-05-18T08:30:58.817Z,60.31
2023-05-18T08:34:05.094Z,60.44
2023-05-18T08:37:07.899Z,59.99
2023-05-18T08:40:14.766Z,60.70
2023-05-18T08:43:23.471Z,62.06
2023-05-18T08:46:51.220Z,62.47
2023-05-18T08:49:57.299Z,62.57
2023-05-18T08:53:06.253Z,63.56
2023-05-18T08:56:11.551Z,65.31
2023-05-18T08:59:18.784Z,65.23
2023-05-18T09:02:21.199Z,65.73
2023-05-18T09:05:24.049Z,66.22
2023-05-18T09:08:26.995Z,66.07
2023-05-18T09:11:29.543Z,66.01
2023-05-18T09:14:32.684Z,66.49
2023-05-18T09:17:40.472Z,66.35
2023-05-18T09:20:43.771Z,66.56
2023-05-18T09:23:48.226Z,66.98
2023-05-18T09:26:51.243Z,67.14
2023-05-18T09:29:55.228Z,67.60
2023-05-18T09:32:57.577Z,67.42
2023-05-18T09:36:02.498Z,67.77
2023-05-18T09:39:10.236Z,68.26
2023-05-18T09:42:12.644Z,68.32
2023-05-18T09:45:26.771Z,67.83
2023-05-18T09:48:28.902Z,67.75
2023-05-18T09:51:31.734Z,68.35
2023-05-18T09:54:36.084Z,68.50
2023-05-18T09:57:43.379Z,67.90
2023-05-18T10:00:56.869Z,69.05
2023-05-18T10:04:04.107Z,68.56
2023-05-18T10:07:13.920Z,68.27
2023-05-18T10:10:20.559Z,68.68
2023-05-18T10:13:26.663Z,69.72
2023-05-18T10:16:29.234Z,69.60
2023-05-18T10:19:36.239Z,69.20
2023-05-18T10:22:39.579Z,69.85
2023-05-18T10:25:45.147Z,69.81
2023-05-18T10:28:50.495Z,68.70
2023-05-18T10:31:54.769Z,68.91
2023-05-18T10:34:59.723Z,68.58
2023-05-18T10:38:05.993Z,68.46
2023-05-18T10:41:08.300Z,69.09
2023-05-18T10:44:11.019Z,69.60
2023-05-18T10:47:18.143Z,69.94
2023-05-18T10:50:25.417Z,70.60
2023-05-18T10:53:30.380Z,72.63
2023-05-18T10:56:33.063Z,72.50
2023-05-18T10:59:35.757Z,73.88
2023-05-18T11:02:43.236Z,73.24
2023-05-18T11:05:52.441Z,71.42
2023-05-18T11:08:54.854Z,67.68
2023-05-18T11:12:03.573Z,67.34
2023-05-18T11:15:06.322Z,67.70
2023-05-18T11:18:16.229Z,68.29
2023-05-18T11:21:20.872Z,67.95
2023-05-18T11:28:14.912Z,68.17
2023-05-18T11:31:18.974Z,67.87
2023-05-18T11:34:42.497Z,68.63
2023-05-18T11:37:49.597Z,68.81
2023-05-18T11:40:53.607Z,69.34
2023-05-18T11:44:18.921Z,68.90
2023-05-18T11:47:21.524Z,69.31
2023-05-18T11:50:23.626Z,69.08
2023-05-18T11:53:27.324Z,68.75
2023-05-18T11:56:33.757Z,68.89
2023-05-18T11:59:43.977Z,68.38
2023-05-18T12:02:47.930Z,69.37
2023-05-18T12:05:50.857Z,69.19
2023-05-18T12:08:54.162Z,69.24
2023-05-18T12:11:56.228Z,69.97
2023-05-18T12:15:01.091Z,69.57
2023-05-18T12:18:03.293Z,68.24
2023-05-18T12:21:06.103Z,69.42
2023-05-18T12:24:08.570Z,68.91
2023-05-18T12:27:13.302Z,68.75
2023-05-18T12:30:22.789Z,69.30
2023-05-18T12:33:25.201Z,69.80
2023-05-18T12:36:27.555Z,69.64
2023-05-18T12:39:29.638Z,69.91
2023-05-18T12:42:32.866Z,70.87
2023-05-18T12:45:35.297Z,70.24
2023-05-18T12:48:47.150Z,70.74
2023-05-18T12:51:49.205Z,71.27
2023-05-18T12:55:00.939Z,70.53
2023-05-18T12:58:18.487Z,70.59
2023-05-18T13:01:21.852Z,70.28
2023-05-18T13:04:24.253Z,70.36
2023-05-18T13:07:26.978Z,69.89
2023-05-18T13:10:33.004Z,69.89
2023-05-18T13:13:35.125Z,70.33
2023-05-18T13:16:45.356Z,70.75
2023-05-18T13:19:47.434Z,71.35
2023-05-18T13:22:52.561Z,70.66
2023-05-18T13:25:58.725Z,71.45
2023-05-18T13:29:01.188Z,70.82
2023-05-18T13:32:03.273Z,71.85
2023-05-18T13:35:06.733Z,71.83
2023-05-18T13:38:13.398Z,72.34
2023-05-18T13:41:15.725Z,72.62
2023-05-18T13:44:18.656Z,72.76
2023-05-18T13:47:20.728Z,72.85
2023-05-18T13:50:24.935Z,72.89
2023-05-18T13:53:26.895Z,72.93
2023-05-18T13:56:28.884Z,73.05
2023-05-18T13:59:55.100Z,74.47
2023-05-18T14:02:57.632Z,74.10
2023-05-18T14:05:59.815Z,73.97
2023-05-18T14:09:03.849Z,73.32
2023-05-18T14:12:07.921Z,72.94
2023-05-18T14:15:11.665Z,72.59
2023-05-18T14:18:18.189Z,73.39
2023-05-18T14:21:20.347Z,73.53
2023-05-18T14:24:22.760Z,73.66
2023-05-18T14:27:25.621Z,73.08
2023-05-18T14:30:30.216Z,73.14
2023-05-18T14:33:32.428Z,73.54
2023-05-18T14:36:37.445Z,72.91
2023-05-18T14:39:41.939Z,71.40
2023-05-18T14:42:43.986Z,70.24
2023-05-18T14:45:50.645Z,69.83
2023-05-18T14:49:01.534Z,70.22
2023-05-18T14:52:06.782Z,69.64
2023-05-18T14:58:29.788Z,67.97
2023-05-18T15:01:33.263Z,69.52
2023-05-18T15:04:36.480Z,69.73
2023-05-18T15:07:39.786Z,69.08
2023-05-18T15:10:43.334Z,70.08
2023-05-18T15:13:48.731Z,69.83
2023-05-18T15:16:50.721Z,69.74
2023-05-18T15:19:54.086Z,70.15
2023-05-18T15:22:58.219Z,69.17
2023-05-18T15:26:00.375Z,69.71
2023-05-18T15:29:04.681Z,69.51
2023-05-18T15:32:10.194Z,70.07
2023-05-18T15:35:16.507Z,70.23
2023-05-18T15:38:19.244Z,71.49
2023-05-18T15:41:26.604Z,71.37
2023-05-18T15:44:29.723Z,72.19
2023-05-18T15:47:32.055Z,72.79
2023-05-18T15:50:37.671Z,72.61
2023-05-18T15:53:40.172Z,73.35
2023-05-18T15:56:43.969Z,73.34
2023-05-18T15:59:51.280Z,73.12
2023-05-18T16:02:53.459Z,73.59
2023-05-18T16:05:55.690Z,74.28
2023-05-18T16:08:57.923Z,74.34
2023-05-18T16:12:00.050Z,74.83
2023-05-18T16:15:03.552Z,74.92
2023-05-18T16:18:06.207Z,74.91
2023-05-18T16:21:09.975Z,75.41
2023-05-18T16:24:14.660Z,75.10
2023-05-18T16:27:16.895Z,74.84
2023-05-18T16:30:19.345Z,75.40
2023-05-18T16:33:21.314Z,75.00
2023-05-18T16:36:26.481Z,75.49
2023-05-18T16:39:28.772Z,75.99
2023-05-18T16:42:31.212Z,75.80
2023-05-18T16:45:33.777Z,76.45
2023-05-18T16:48:36.307Z,74.76
2023-05-18T16:51:38.282Z,73.54
2023-05-18T16:54:40.256Z,73.04
2023-05-18T16:57:43.603Z,72.25
2023-05-18T17:00:45.662Z,72.22
2023-05-18T17:03:48.662Z,70.84
2023-05-18T17:06:52.382Z,71.24
2023-05-18T17:09:54.405Z,71.51
2023-05-18T17:12:58.196Z,71.29
2023-05-18T17:16:00.465Z,72.40
2023-05-18T17:19:06.158Z,71.52
2023-05-18T17:22:18.648Z,71.65
2023-05-18T17:25:23.887Z,71.63
2023-05-18T17:28:28.840Z,71.69
2023-05-18T17:31:31.344Z,72.62
2023-05-18T17:34:33.395Z,72.37
2023-05-18T17:37:36.218Z,72.42
2023-05-18T17:40:38.158Z,73.38
2023-05-18T17:43:40.261Z,73.35
2023-05-18T17:46:44.823Z,73.04
2023-05-18T17:49:47.641Z,73.22
2023-05-18T17:52:49.693Z,73.89
2023-05-18T17:55:54.605Z,73.75
2023-05-18T17:58:59.469Z,73.94
2023-05-18T18:02:01.735Z,73.57
2023-05-18T18:05:04.233Z,74.37
2023-05-18T18:08:06.629Z,74.32
2023-05-18T18:11:09.678Z,74.51
2023-05-18T18:14:16.495Z,74.95
2023-05-18T18:17:19.262Z,75.18
2023-05-18T18:20:21.688Z,76.06
2023-05-18T18:23:23.841Z,75.99
2023-05-18T18:26:26.872Z,76.39
2023-05-18T18:29:31.157Z,76.62
2023-05-18T18:32:33.307Z,76.88
2023-05-18T18:35:38.912Z,77.28
2023-05-18T18:38:41.993Z,76.99
2023-05-18T18:41:44.953Z,77.52
2023-05-18T18:44:47.105Z,76.92
2023-05-18T18:47:49.270Z,77.01
2023-05-18T18:50:51.605Z,77.61
2023-05-18T18:53:54.666Z,77.19
2023-05-18T18:56:56.789Z,77.08
2023-05-18T18:59:59.295Z,78.58
2023-05-18T19:03:05.102Z,79.07
2023-05-18T19:06:07.218Z,78.78
2023-05-18T19:09:09.353Z,78.83
2023-05-18T19:12:11.511Z,78.46
2023-05-18T19:15:14.037Z,78.27
2023-05-18T19:18:16.549Z,78.69
2023-05-18T19:21:19.401Z,79.46
2023-05-18T19:24:22.732Z,79.68
2023-05-18T19:27:25.037Z,80.14
2023-05-18T19:30:28.574Z,80.73
2023-05-18T19:33:35.637Z,80.46
2023-05-18T19:36:39.568Z,82.09
2023-05-18T19:39:42.938Z,82.16
2023-05-18T19:42:45.383Z,81.99
2023-05-18T19:45:49.963Z,82.54
2023-05-18T19:48:53.147Z,82.57
2023-05-18T19:52:00.292Z,82.90
2023-05-18T19:55:03.511Z,82.71
2023-05-18T19:58:06.750Z,82.91
2023-05-18T20:01:10.177Z,83.73
2023-05-18T20:04:13.301Z,83.35
2023-05-18T20:07:17.819Z,82.09
2023-05-18T20:10:19.854Z,82.93
2023-05-18T20:13:23.107Z,82.90
2023-05-18T20:16:26.608Z,83.72
2023-05-18T20:19:29.056Z,83.22
2023-05-18T20:22:31.230Z,83.97
2023-05-18T20:25:35.296Z,83.57
2023-05-18T20:28:37.559Z,84.01
2023-05-18T20:31:40.437Z,83.66
2023-05-18T20:34:44.596Z,83.54
2023-05-18T20:37:47.461Z,83.84
2023-05-18T20:40:51.386Z,83.98
2023-05-18T20:43:53.858Z,84.61
2023-05-18T20:46:56.089Z,85.40
2023-05-18T20:49:58.890Z,85.67
2023-05-18T20:53:01.397Z,86.44
2023-05-18T20:56:05.543Z,85.84
2023-05-18T20:59:10.112Z,86.02
2023-05-18T21:02:12.259Z,86.62
2023-05-18T21:05:15.174Z,86.67
2023-05-18T21:08:17.296Z,85.71
2023-05-18T21:11:19.757Z,85.36
2023-05-18T21:14:22.501Z,86.79
2023-05-18T21:17:24.571Z,85.71
2023-05-18T21:20:27.090Z,86.68
2023-05-18T21:23:29.394Z,85.97
2023-05-18T21:26:31.772Z,86.27
2023-05-18T21:29:33.770Z,87.39
2023-05-18T21:32:35.996Z,87.31
2023-05-18T21:35:38.210Z,88.07
2023-05-18T21:38:40.272Z,87.40
2023-05-18T21:41:44.408Z,88.30
2023-05-18T21:44:46.641Z,88.89
2023-05-18T21:47:50.871Z,87.90
2023-05-18T21:50:54.355Z,89.06
2023-05-18T21:53:56.405Z,88.62
2023-05-18T21:56:59.576Z,88.14
2023-05-18T22:00:02.124Z,87.92
2023-05-18T22:03:15.313Z,88.71
2023-05-18T22:06:20.589Z,88.10
2023-05-18T22:09:22.716Z,89.38
2023-05-18T22:12:24.889Z,88.43
2023-05-18T22:15:28.457Z,88.44
2023-05-18T22:18:31.043Z,88.51
2023-05-18T22:21:33.144Z,89.00
2023-05-18T22:24:35.565Z,88.66
2023-05-18T22:27:39.086Z,89.47
2023-05-18T22:30:41.219Z,89.58
2023-05-18T22:33:44.674Z,88.69
2023-05-18T22:36:46.744Z,88.55
2023-05-18T22:39:48.852Z,89.50
2023-05-18T22:42:50.937Z,88.40
2023-05-18T22:45:53.047Z,89.07
2023-05-18T22:48:55.216Z,89.63
2023-05-18T22:51:57.689Z,89.58
2023-05-18T22:54:59.970Z,88.73
2023-05-18T22:58:03.145Z,88.48
2023-05-18T23:01:06.344Z,90.31
2023-05-18T23:04:08.705Z,90.00
2023-05-18T23:07:14.097Z,89.61
2023-05-18T23:10:16.651Z,89.99
2023-05-18T23:13:19.764Z,90.36
2023-05-18T23:16:24.262Z,90.45
2023-05-18T23:19:27.003Z,89.71
2023-05-18T23:22:29.223Z,89.76
2023-05-18T23:25:31.481Z,89.66
2023-05-18T23:28:34.977Z,90.36
2023-05-18T23:31:37.916Z,90.00
2023-05-18T23:34:40.531Z,89.13
2023-05-18T23:37:43.599Z,89.33
2023-05-18T23:40:47.812Z,90.50
2023-05-18T23:43:50.640Z,90.77
2023-05-18T23:46:53.635Z,90.56
2023-05-18T23:49:56.312Z,90.76
2023-05-18T23:53:03.374Z,91.07
2023-05-18T23:56:07.170Z,90.90
2023-05-18T23:59:10.736Z,90.97
